Time;durP1;ratioP1;P1;durP2;ratioP2;P2;SDS_P1;SDS_P2;PMS_P1;PMS_P2;Temp;Humidity;BMP_temperature;BMP_pressure;BME280_temperature;BME280_humidity;BME280_pressure;Samples;Min_cycle;Max_cycle;Signal;HPM_P1;HPM_P2
2022/06/20 00:00:20;;;;;;;18.10;11.03;;;24.10;59.50;;;;;;5098906;28;20403;-46
2022/06/20 00:02:52;;;;;;;14.77;11.67;;;24.10;59.70;;;;;;5098699;28;20426;-47
2022/06/20 00:05:23;;;;;;;12.37;11.07;;;24.00;60.60;;;;;;5099432;28;20415;-46
2022/06/20 00:07:49;;;;;;;11.27;10.17;;;24.00;61.10;;;;;;5099143;28;20680;-48
2022/06/20 00:10:17;;;;;;;11.90;10.63;;;24.00;62.30;;;;;;5099235;28;20402;-46
2022/06/20 00:12:44;;;;;;;15.37;12.27;;;24.00;62.50;;;;;;5099144;28;20442;-46
2022/06/20 00:15:29;;;;;;;13.00;11.50;;;23.90;62.70;;;;;;5098143;28;20414;-47
2022/06/20 00:17:56;;;;;;;14.67;11.67;;;23.80;63.30;;;;;;5099211;28;20502;-45
2022/06/20 00:20:22;;;;;;;13.10;11.23;;;23.80;64.50;;;;;;5099656;28;20899;-48
2022/06/20 00:22:48;;;;;;;12.90;10.93;;;23.70;65.10;;;;;;5099172;28;20689;-49
2022/06/20 00:25:16;;;;;;;14.30;12.53;;;23.70;65.80;;;;;;5099799;28;20411;-44
2022/06/20 00:27:44;;;;;;;12.90;11.60;;;23.60;66.20;;;;;;5099455;28;20554;-47
2022/06/20 00:30:12;;;;;;;13.80;11.37;;;23.50;67.90;;;;;;5099472;28;20909;-47
2022/06/20 00:32:38;;;;;;;12.80;11.33;;;23.40;68.00;;;;;;5099614;28;20423;-47
2022/06/20 00:35:04;;;;;;;14.00;11.73;;;23.40;69.00;;;;;;5100065;28;20506;-47
2022/06/20 00:37:30;;;;;;;14.80;12.43;;;23.30;69.90;;;;;;5099095;28;20189;-47
2022/06/20 00:39:56;;;;;;;13.43;11.73;;;23.30;70.70;;;;;;5098757;28;20825;-48
2022/06/20 00:42:22;;;;;;;13.57;12.30;;;23.30;71.10;;;;;;5099100;28;20413;-48
2022/06/20 00:44:56;;;;;;;13.27;11.90;;;23.20;71.20;;;;;;5098192;28;20864;-46
2022/06/20 00:47:28;;;;;;;12.70;11.50;;;23.20;71.80;;;;;;5099309;28;20421;-47
2022/06/20 00:50:09;;;;;;;12.20;10.90;;;23.20;72.10;;;;;;5098608;28;20528;-48
2022/06/20 00:52:53;;;;;;;12.60;11.40;;;23.30;72.40;;;;;;5098611;28;20414;-49
2022/06/20 00:55:34;;;;;;;19.60;15.07;;;23.40;73.20;;;;;;5097487;28;20437;-52
2022/06/20 00:58:06;;;;;;;15.73;12.63;;;23.50;79.30;;;;;;5097869;28;20445;-50
2022/06/20 01:00:36;;;;;;;18.03;12.40;;;23.40;81.10;;;;;;5099089;28;20429;-46
2022/06/20 01:03:22;;;;;;;16.50;13.27;;;23.30;80.00;;;;;;5098842;28;20406;-46
2022/06/20 01:06:23;;;;;;;13.80;11.23;;;23.30;79.60;;;;;;5098038;28;20502;-48
2022/06/20 01:08:56;;;;;;;19.17;15.20;;;23.40;80.20;;;;;;5088535;28;20467;-53
2022/06/20 01:11:26;;;;;;;15.23;13.17;;;23.50;82.20;;;;;;5098259;28;20419;-48
2022/06/20 01:13:52;;;;;;;14.47;12.97;;;23.60;83.40;;;;;;5097646;28;20532;-48
2022/06/20 01:16:31;;;;;;;16.30;12.87;;;23.70;85.10;;;;;;5098384;28;20700;-49
2022/06/20 01:19:00;;;;;;;17.57;13.73;;;23.60;89.50;;;;;;5098510;28;20478;-46
2022/06/20 01:21:31;;;;;;;20.20;14.23;;;23.60;89.00;;;;;;5097210;28;20419;-46
2022/06/20 01:24:00;;;;;;;17.20;14.03;;;23.70;89.90;;;;;;5098579;28;20532;-50
2022/06/20 01:26:52;;;;;;;15.43;13.70;;;23.70;90.30;;;;;;5098974;28;20723;-48
2022/06/20 01:29:18;;;;;;;14.17;12.87;;;23.80;90.80;;;;;;5094471;28;20473;-48
2022/06/20 01:31:50;;;;;;;17.10;13.40;;;23.80;91.80;;;;;;5097643;28;20482;-48
2022/06/20 01:34:17;;;;;;;13.50;12.17;;;23.80;92.00;;;;;;5095780;28;20574;-51
2022/06/20 01:39:33;;;;;;;14.80;12.73;;;23.60;92.90;;;;;;5095736;28;20476;-49
2022/06/20 01:42:20;;;;;;;14.53;13.00;;;23.50;93.50;;;;;;5095490;28;20413;-49
2022/06/20 01:44:46;;;;;;;13.83;12.43;;;23.50;93.50;;;;;;5096779;28;20423;-49
2022/06/20 01:50:34;;;;;;;14.37;12.97;;;23.40;94.00;;;;;;5097228;28;20185;-46
2022/06/20 01:53:02;;;;;;;13.40;12.00;;;23.40;94.30;;;;;;5097173;28;20813;-48
2022/06/20 01:55:28;;;;;;;13.90;12.60;;;23.30;94.40;;;;;;5096596;28;20442;-47
2022/06/20 01:58:04;;;;;;;13.23;11.83;;;23.30;94.80;;;;;;5096680;28;20414;-48
2022/06/20 02:00:30;;;;;;;16.03;12.30;;;23.30;94.70;;;;;;5094769;28;20422;-47
2022/06/20 02:02:59;;;;;;;22.43;12.70;;;23.30;95.10;;;;;;5096828;28;20420;-50
2022/06/20 02:05:28;;;;;;;15.80;11.80;;;23.30;95.30;;;;;;5080313;28;20430;-51
2022/06/20 02:07:56;;;;;;;16.63;11.97;;;23.30;95.50;;;;;;5097606;28;20407;-48
2022/06/20 02:10:27;;;;;;;13.73;12.40;;;23.20;95.80;;;;;;5098351;28;20437;-47
2022/06/20 02:13:00;;;;;;;13.07;11.30;;;23.10;95.90;;;;;;5096998;28;20801;-48
2022/06/20 02:15:27;;;;;;;13.57;12.00;;;23.00;96.10;;;;;;5096899;28;20828;-48
2022/06/20 02:17:53;;;;;;;16.57;11.60;;;23.00;96.20;;;;;;5096486;28;20574;-48
2022/06/20 02:20:23;;;;;;;16.03;11.67;;;23.10;96.20;;;;;;5096482;28;20896;-49
2022/06/20 02:22:49;;;;;;;14.70;12.37;;;23.10;96.20;;;;;;5097515;28;20180;-49
2022/06/20 02:25:21;;;;;;;13.67;12.20;;;23.10;96.20;;;;;;5096284;28;20503;-48
2022/06/20 02:27:51;;;;;;;12.37;10.83;;;23.20;96.30;;;;;;5096641;28;20409;-49
2022/06/20 02:30:17;;;;;;;13.83;12.30;;;23.20;96.30;;;;;;5097790;28;20474;-49
2022/06/20 02:33:11;;;;;;;17.13;12.03;;;23.10;96.50;;;;;;5097615;28;20850;-47
2022/06/20 02:35:38;;;;;;;12.20;11.03;;;23.10;96.60;;;;;;5096235;28;20443;-47
2022/06/20 02:38:03;;;;;;;12.27;11.07;;;23.00;96.70;;;;;;5097723;28;20414;-47
2022/06/20 02:40:30;;;;;;;13.10;11.80;;;22.90;96.70;;;;;;5096643;28;20465;-48
2022/06/20 02:43:12;;;;;;;18.77;11.77;;;22.90;96.80;;;;;;5097530;28;20439;-47
2022/06/20 02:45:39;;;;;;;15.50;11.43;;;23.00;96.80;;;;;;5096941;28;20857;-46
2022/06/20 02:48:07;;;;;;;16.20;12.20;;;23.00;96.90;;;;;;5096433;28;20508;-46
2022/06/20 02:50:36;;;;;;;11.70;10.60;;;23.00;97.40;;;;;;5096332;28;20442;-47
2022/06/20 02:53:12;;;;;;;15.70;11.87;;;22.90;96.20;;;;;;5095361;28;20421;-47
2022/06/20 02:55:38;;;;;;;12.00;10.70;;;22.80;96.30;;;;;;5094806;28;20429;-47
2022/06/20 02:58:11;;;;;;;15.77;9.73;;;22.80;96.30;;;;;;5094528;28;20490;-45
2022/06/20 03:00:45;;;;;;;11.70;10.20;;;22.90;92.30;;;;;;5095116;28;20428;-48
2022/06/20 03:03:17;;;;;;;17.43;11.63;;;22.80;93.90;;;;;;5098599;28;20505;-47
2022/06/20 03:05:43;;;;;;;16.57;9.93;;;22.80;94.10;;;;;;5096822;28;20507;-48
2022/06/20 03:08:10;;;;;;;11.13;9.63;;;22.80;94.20;;;;;;5098690;28;20409;-47
2022/06/20 03:10:40;;;;;;;17.50;10.33;;;22.70;94.60;;;;;;5097337;28;20187;-48
2022/06/20 03:13:07;;;;;;;14.10;10.77;;;22.70;95.20;;;;;;5098527;28;20520;-47
2022/06/20 03:15:33;;;;;;;12.80;9.73;;;22.80;94.70;;;;;;5098824;28;20426;-46
2022/06/20 03:17:59;;;;;;;10.50;9.43;;;22.80;94.70;;;;;;5080775;28;20456;-47
2022/06/20 03:20:28;;;;;;;13.13;9.10;;;22.90;94.80;;;;;;5100445;28;20202;-47
2022/06/20 03:23:06;;;;;;;12.13;10.00;;;22.90;95.00;;;;;;5100762;28;20485;-48
2022/06/20 03:25:32;;;;;;;17.30;10.03;;;22.90;94.90;;;;;;5100103;28;20433;-47
2022/06/20 03:27:58;;;;;;;10.77;9.67;;;22.90;94.80;;;;;;5099785;28;20686;-49
2022/06/20 03:30:35;;;;;;;13.80;11.07;;;22.90;95.00;;;;;;5100131;28;20486;-47
2022/06/20 03:33:04;;;;;;;12.20;10.47;;;22.90;93.80;;;;;;5099646;28;20263;-46
2022/06/20 03:35:31;;;;;;;12.33;10.43;;;22.90;94.20;;;;;;5098393;28;20429;-49
2022/06/20 03:38:02;;;;;;;12.03;9.40;;;22.80;94.80;;;;;;5098141;28;20470;-47
2022/06/20 03:40:28;;;;;;;10.90;9.10;;;22.70;95.10;;;;;;5080793;28;20435;-47
2022/06/20 03:42:56;;;;;;;12.00;10.20;;;22.70;94.50;;;;;;5097719;28;20517;-47
2022/06/20 03:45:24;;;;;;;15.77;10.43;;;22.60;94.90;;;;;;5098478;28;20530;-48
2022/06/20 03:48:01;;;;;;;11.17;9.90;;;22.70;94.10;;;;;;5099213;28;20421;-46
2022/06/20 03:50:35;;;;;;;19.70;10.87;;;22.80;93.20;;;;;;5099280;28;20489;-46
2022/06/20 03:53:02;;;;;;;12.87;10.60;;;22.80;93.50;;;;;;5099457;28;20413;-49
2022/06/20 03:55:32;;;;;;;13.70;10.07;;;22.70;93.60;;;;;;5098478;28;20420;-51
2022/06/20 03:58:00;;;;;;;16.97;13.70;;;22.60;94.40;;;;;;5098091;28;20421;-49
2022/06/20 04:00:35;;;;;;;14.70;10.87;;;22.50;95.40;;;;;;5097862;28;20463;-49
2022/06/20 04:03:13;;;;;;;15.90;12.10;;;22.40;95.50;;;;;;5098457;28;20822;-46
2022/06/20 04:05:49;;;;;;;16.47;12.70;;;22.40;96.40;;;;;;5097761;28;20425;-48
2022/06/20 04:11:24;;;;;;;15.90;12.30;;;22.20;97.10;;;;;;5096831;28;20794;-49
2022/06/20 04:14:07;;;;;;;13.57;11.60;;;22.10;97.10;;;;;;5095058;28;20429;-47
2022/06/20 04:16:41;;;;;;;14.50;11.40;;;22.00;97.30;;;;;;5096364;28;20858;-47
2022/06/20 04:19:34;;;;;;;13.03;11.10;;;22.10;97.40;;;;;;5094929;28;20543;-48
2022/06/20 04:22:13;;;;;;;12.40;11.10;;;22.10;97.30;;;;;;5096246;28;21001;-49
2022/06/20 04:24:52;;;;;;;16.20;12.47;;;22.20;97.30;;;;;;5095535;28;20418;-48
2022/06/20 04:27:25;;;;;;;13.13;10.40;;;22.10;97.50;;;;;;5096937;28;20451;-49
2022/06/20 04:30:05;;;;;;;15.63;10.63;;;22.10;97.50;;;;;;5095086;28;20471;-48
2022/06/20 04:32:37;;;;;;;13.60;10.30;;;22.10;97.30;;;;;;5095413;28;20428;-53
2022/06/20 04:35:10;;;;;;;16.23;10.70;;;22.10;97.20;;;;;;5096578;28;20543;-48
2022/06/20 04:37:41;;;;;;;15.07;10.50;;;22.40;96.80;;;;;;5097412;28;20422;-49
2022/06/20 04:40:09;;;;;;;13.67;10.67;;;22.60;96.50;;;;;;5097219;28;20471;-48
2022/06/20 04:42:56;;;;;;;13.40;10.20;;;22.70;96.50;;;;;;5097093;28;20453;-48
2022/06/20 04:45:33;;;;;;;11.53;10.30;;;22.80;96.60;;;;;;5093387;28;20445;-49
2022/06/20 04:48:07;;;;;;;14.83;11.40;;;22.80;96.70;;;;;;5093883;28;20419;-48
2022/06/20 04:50:34;;;;;;;14.40;10.97;;;22.90;97.30;;;;;;5093327;28;20427;-48
2022/06/20 04:53:05;;;;;;;12.17;10.63;;;22.70;97.30;;;;;;5093131;28;20425;-48
2022/06/20 04:55:32;;;;;;;15.00;11.93;;;22.70;97.40;;;;;;5093266;28;20411;-47
2022/06/20 04:58:01;;;;;;;12.37;11.07;;;22.60;97.20;;;;;;5093290;28;20417;-48
2022/06/20 05:00:37;;;;;;;12.00;10.60;;;22.50;97.70;;;;;;5095330;28;20497;-48
2022/06/20 05:03:05;;;;;;;13.20;11.40;;;22.50;97.70;;;;;;5095041;28;20412;-48
2022/06/20 05:05:37;;;;;;;12.53;10.67;;;22.60;98.00;;;;;;5093918;28;20465;-49
2022/06/20 05:08:04;;;;;;;13.80;10.57;;;22.60;97.40;;;;;;5095818;28;20421;-48
2022/06/20 05:10:35;;;;;;;13.33;9.93;;;22.70;97.10;;;;;;5093537;28;20771;-52
2022/06/20 05:13:09;;;;;;;17.07;11.20;;;22.90;97.00;;;;;;5095399;28;20424;-49
2022/06/20 05:15:36;;;;;;;13.87;12.13;;;23.00;96.90;;;;;;5093509;28;20442;-49
2022/06/20 05:18:18;;;;;;;11.20;9.60;;;23.10;96.80;;;;;;5095223;28;20474;-48
2022/06/20 05:20:44;;;;;;;10.53;9.50;;;23.20;96.60;;;;;;5093664;28;20431;-48
2022/06/20 05:23:28;;;;;;;12.20;10.50;;;23.30;96.50;;;;;;5094319;28;20767;-49
2022/06/20 05:25:55;;;;;;;14.30;10.00;;;23.30;96.50;;;;;;5075081;28;20419;-50
2022/06/20 05:28:23;;;;;;;18.57;9.60;;;23.30;96.50;;;;;;5072234;28;20537;-49
2022/06/20 05:30:49;;;;;;;12.77;10.10;;;23.30;96.50;;;;;;5070777;28;20492;-51
2022/06/20 05:33:14;;;;;;;18.60;12.17;;;23.30;96.40;;;;;;5071552;28;20425;-50
2022/06/20 05:35:57;;;;;;;16.67;12.60;;;23.30;96.20;;;;;;5072292;28;20193;-49
2022/06/20 05:38:50;;;;;;;15.20;12.53;;;23.00;97.30;;;;;;5073040;28;20211;-49
2022/06/20 05:41:17;;;;;;;13.50;11.77;;;22.70;98.30;;;;;;5065799;28;20440;-51
2022/06/20 05:43:43;;;;;;;14.70;13.10;;;22.60;98.60;;;;;;5073495;28;20412;-52
2022/06/20 05:46:27;;;;;;;14.77;13.10;;;22.50;98.60;;;;;;5072399;28;20840;-51
2022/06/20 05:48:55;;;;;;;15.77;12.63;;;22.40;98.90;;;;;;5073745;28;20818;-50
2022/06/20 05:51:23;;;;;;;12.87;11.17;;;22.30;99.40;;;;;;5072344;28;20453;-50
2022/06/20 05:53:59;;;;;;;14.40;12.13;;;22.40;99.00;;;;;;5073271;28;20704;-49
2022/06/20 05:57:03;;;;;;;14.70;10.80;;;22.40;99.10;;;;;;5072988;28;20429;-47
2022/06/20 05:59:29;;;;;;;12.40;11.30;;;22.50;98.90;;;;;;5037770;28;20469;-50
2022/06/20 06:02:00;;;;;;;16.83;11.90;;;22.60;98.70;;;;;;5071820;28;20442;-48
2022/06/20 06:04:40;;;;;;;14.83;13.17;;;22.80;98.40;;;;;;5072894;28;20409;-50
2022/06/20 06:07:14;;;;;;;14.53;12.00;;;23.00;98.30;;;;;;5073454;28;20432;-48
2022/06/20 06:09:54;;;;;;;14.63;12.60;;;23.00;98.20;;;;;;5072562;28;20417;-49
2022/06/20 06:12:26;;;;;;;14.80;12.80;;;23.10;98.30;;;;;;5071714;28;20718;-50
2022/06/20 06:15:01;;;;;;;13.27;9.93;;;23.10;98.60;;;;;;5074592;28;20498;-48
2022/06/20 06:17:30;;;;;;;14.00;12.37;;;23.30;98.10;;;;;;5070504;28;20401;-48
2022/06/20 06:20:02;;;;;;;17.40;12.80;;;23.40;97.90;;;;;;5068471;28;20458;-49
2022/06/20 06:22:31;;;;;;;16.07;11.43;;;23.40;97.60;;;;;;5069724;28;20574;-49
2022/06/20 06:25:00;;;;;;;13.40;10.80;;;23.50;97.20;;;;;;5070315;28;20425;-47
2022/06/20 06:27:30;;;;;;;14.70;11.57;;;23.60;96.90;;;;;;5070731;28;20403;-49
2022/06/20 06:30:06;;;;;;;18.67;11.87;;;23.80;96.70;;;;;;5070394;28;20803;-49
2022/06/20 06:32:39;;;;;;;15.53;10.83;;;24.00;96.80;;;;;;5073486;28;20536;-50
2022/06/20 06:35:26;;;;;;;12.60;11.33;;;24.20;96.30;;;;;;5071704;28;20516;-49
2022/06/20 06:38:00;;;;;;;12.40;11.10;;;24.30;96.20;;;;;;5076741;28;20764;-48
2022/06/20 06:40:32;;;;;;;12.70;11.40;;;24.30;96.30;;;;;;5078261;28;20773;-50
2022/06/20 06:43:37;;;;;;;16.43;10.80;;;24.20;96.20;;;;;;5077643;28;20413;-47
2022/06/20 06:46:04;;;;;;;15.90;12.10;;;24.10;96.00;;;;;;5079442;28;20433;-49
2022/06/20 06:48:50;;;;;;;11.37;10.13;;;24.00;96.00;;;;;;5078173;28;20483;-50
2022/06/20 06:51:38;;;;;;;11.93;10.73;;;24.00;96.00;;;;;;5077647;28;20429;-53
2022/06/20 06:54:15;;;;;;;15.67;12.70;;;24.00;96.00;;;;;;5092016;28;20417;-49
2022/06/20 06:56:46;;;;;;;14.93;10.43;;;24.10;96.00;;;;;;5076156;28;20436;-50
2022/06/20 06:59:40;;;;;;;14.77;12.43;;;24.40;95.70;;;;;;5077319;28;20526;-49
2022/06/20 07:02:12;;;;;;;13.47;11.13;;;24.60;95.60;;;;;;5077830;28;20413;-48
2022/06/20 07:04:55;;;;;;;13.23;11.23;;;24.60;95.60;;;;;;5074295;28;20563;-50
2022/06/20 07:08:02;;;;;;;12.00;10.60;;;24.70;95.40;;;;;;5074677;28;20411;-50
2022/06/20 07:10:39;;;;;;;11.93;10.50;;;24.90;95.20;;;;;;5014353;28;20473;-53
2022/06/20 07:13:21;;;;;;;11.90;10.70;;;25.10;95.10;;;;;;5012902;28;20528;-48
2022/06/20 07:15:49;;;;;;;13.27;9.63;;;25.30;93.90;;;;;;5065566;28;20484;-54
2022/06/20 07:18:42;;;;;;;10.97;9.83;;;25.40;93.70;;;;;;5059334;28;20424;-51
2022/06/20 07:21:15;;;;;;;11.33;10.33;;;25.60;93.10;;;;;;5077780;28;20688;-51
2022/06/20 07:23:43;;;;;;;10.43;9.60;;;25.70;92.20;;;;;;5077578;28;20509;-50
2022/06/20 07:26:09;;;;;;;11.53;10.47;;;25.90;91.60;;;;;;5075071;28;20507;-49
2022/06/20 07:28:48;;;;;;;14.03;10.80;;;26.10;91.20;;;;;;5073175;28;20427;-49
2022/06/20 07:31:30;;;;;;;10.90;9.90;;;26.20;91.10;;;;;;5073682;28;20468;-52
2022/06/20 07:34:02;;;;;;;12.80;11.03;;;26.40;90.50;;;;;;5071906;28;20606;-51
2022/06/20 07:36:34;;;;;;;11.53;10.43;;;26.60;90.50;;;;;;5054826;28;20735;-49
2022/06/20 07:39:11;;;;;;;10.77;9.87;;;26.80;89.70;;;;;;5071672;28;20745;-50
2022/06/20 07:41:47;;;;;;;12.63;9.70;;;27.00;89.00;;;;;;5073595;28;20610;-52
2022/06/20 07:44:21;;;;;;;12.90;10.47;;;27.20;89.10;;;;;;5071016;28;20747;-51
2022/06/20 07:46:59;;;;;;;11.40;10.20;;;27.50;89.60;;;;;;5072726;28;20432;-49
2022/06/20 07:49:42;;;;;;;11.47;10.37;;;27.70;88.80;;;;;;5073526;28;20469;-50
2022/06/20 07:52:15;;;;;;;13.83;10.07;;;27.80;86.80;;;;;;5074908;28;20423;-50
2022/06/20 07:54:51;;;;;;;12.77;10.67;;;27.80;84.30;;;;;;5074415;28;20419;-48
2022/06/20 07:57:35;;;;;;;13.63;10.10;;;28.00;82.70;;;;;;5072908;28;20468;-51
2022/06/20 08:00:11;;;;;;;16.80;9.07;;;28.20;82.90;;;;;;5073181;28;20468;-40
2022/06/20 08:02:46;;;;;;;10.27;9.27;;;28.40;82.10;;;;;;5071710;28;20425;-41
2022/06/20 08:05:35;;;;;;;11.67;10.10;;;28.50;79.40;;;;;;5071604;28;20849;-39
2022/06/20 08:08:11;;;;;;;10.70;9.70;;;28.60;79.70;;;;;;5073337;28;20413;-39
2022/06/20 08:10:43;;;;;;;11.50;10.03;;;28.80;77.90;;;;;;5071360;28;20419;-40
2022/06/20 08:13:54;;;;;;;10.20;9.20;;;28.90;77.00;;;;;;5074306;28;20417;-40
2022/06/20 08:16:25;;;;;;;12.60;10.07;;;29.20;77.10;;;;;;4993118;28;20703;-41
2022/06/20 08:18:51;;;;;;;12.27;9.40;;;29.40;73.50;;;;;;5057310;28;20757;-40
2022/06/20 08:21:33;;;;;;;13.33;8.70;;;29.60;74.00;;;;;;5072682;28;20425;-41
2022/06/20 08:24:03;;;;;;;11.27;9.80;;;29.80;72.20;;;;;;5071191;28;20416;-41
2022/06/20 08:26:32;;;;;;;10.30;9.33;;;29.90;70.90;;;;;;5069918;28;20441;-42
2022/06/20 08:29:00;;;;;;;10.63;9.63;;;30.10;69.30;;;;;;5069639;28;20431;-41
2022/06/20 08:31:35;;;;;;;11.35;9.02;;;30.10;68.60;;;;;;5031760;28;1200813;-40
2022/06/20 08:34:15;;;;;;;9.93;8.97;;;30.40;68.30;;;;;;5074570;28;20517;-41
2022/06/20 08:36:49;;;;;;;9.80;8.90;;;30.80;69.00;;;;;;5076114;28;20395;-43
2022/06/20 08:39:43;;;;;;;14.13;9.30;;;31.20;65.90;;;;;;5072553;28;20782;-41
2022/06/20 08:42:17;;;;;;;10.10;9.30;;;31.20;62.40;;;;;;5074591;28;20419;-40
2022/06/20 08:44:48;;;;;;;12.20;9.47;;;30.70;61.30;;;;;;5075970;28;20405;-41
2022/06/20 08:47:32;;;;;;;11.23;9.07;;;30.30;63.80;;;;;;5075057;28;20849;-40
2022/06/20 08:50:22;;;;;;;16.50;9.57;;;29.90;65.80;;;;;;5076717;28;20406;-43
2022/06/20 08:53:02;;;;;;;9.60;8.67;;;29.80;66.50;;;;;;5076619;28;20452;-41
2022/06/20 08:56:07;;;;;;;9.37;8.47;;;29.90;66.40;;;;;;5075318;28;20693;-41
2022/06/20 08:59:02;;;;;;;10.23;9.23;;;30.30;68.50;;;;;;5072198;28;20459;-42
2022/06/20 09:01:40;;;;;;;11.77;7.93;;;30.70;64.40;;;;;;5058029;28;20429;-42
2022/06/20 09:04:31;;;;;;;10.20;9.23;;;31.00;63.70;;;;;;5071465;28;20879;-41
2022/06/20 09:07:28;;;;;;;10.57;9.33;;;31.20;58.60;;;;;;5074040;28;20522;-41
2022/06/20 09:10:21;;;;;;;10.80;9.70;;;31.40;57.10;;;;;;5073997;28;20438;-39
2022/06/20 09:13:08;;;;;;;10.47;8.73;;;31.70;57.00;;;;;;5074467;28;20371;-43
2022/06/20 09:15:44;;;;;;;12.63;9.33;;;32.10;56.10;;;;;;5074622;28;20713;-41
2022/06/20 09:18:37;;;;;;;10.23;9.40;;;32.30;55.30;;;;;;5075355;28;20434;-43
2022/06/20 09:21:34;;;;;;;10.30;8.90;;;32.50;55.00;;;;;;5087225;28;20778;-41
2022/06/20 09:24:29;;;;;;;9.23;8.43;;;32.60;53.80;;;;;;5096960;28;20440;-41
2022/06/20 09:27:04;;;;;;;10.83;9.83;;;32.60;53.80;;;;;;5078090;28;20467;-41
2022/06/20 09:29:42;;;;;;;9.93;8.93;;;32.40;53.20;;;;;;5094169;28;20404;-43
2022/06/20 09:32:34;;;;;;;10.63;9.67;;;32.10;53.70;;;;;;5095479;28;20389;-41
2022/06/20 09:35:21;;;;;;;10.60;9.73;;;31.80;51.60;;;;;;5096445;28;20421;-41
2022/06/20 09:37:56;;;;;;;10.30;9.40;;;30.70;52.30;;;;;;5096148;28;20426;-42
2022/06/20 09:40:49;;;;;;;10.27;8.93;;;30.60;53.00;;;;;;5092957;28;20477;-41
2022/06/20 09:43:15;;;;;;;12.20;10.10;;;30.20;53.40;;;;;;5094544;28;20812;-39
2022/06/20 09:45:52;;;;;;;10.30;9.50;;;29.90;53.70;;;;;;5094770;28;20426;-40
2022/06/20 09:48:48;;;;;;;9.90;9.00;;;29.60;54.60;;;;;;5093988;28;20729;-40
2022/06/20 09:51:41;;;;;;;9.10;8.30;;;29.40;55.00;;;;;;5094916;28;20410;-42
2022/06/20 09:54:13;;;;;;;9.57;7.67;;;29.40;54.80;;;;;;5097461;28;20404;-41
2022/06/20 09:56:48;;;;;;;9.07;8.17;;;29.50;54.80;;;;;;5094158;28;20414;-40
2022/06/20 09:59:20;;;;;;;10.10;8.87;;;29.80;54.40;;;;;;5094890;28;20464;-40
2022/06/20 10:02:04;;;;;;;8.73;7.67;;;30.10;54.30;;;;;;5095290;28;20421;-40
2022/06/20 10:04:50;;;;;;;11.73;8.33;;;30.20;53.20;;;;;;5095463;28;20410;-41
2022/06/20 10:07:18;;;;;;;9.67;8.13;;;30.10;52.60;;;;;;5096021;28;20678;-41
2022/06/20 10:10:15;;;;;;;10.70;7.83;;;30.10;53.70;;;;;;5096082;28;20845;-42
2022/06/20 10:12:52;;;;;;;8.97;8.27;;;30.00;53.40;;;;;;5096336;28;20407;-42
2022/06/20 10:15:37;;;;;;;10.10;7.57;;;30.20;53.50;;;;;;5078420;28;20463;-41
2022/06/20 10:18:30;;;;;;;8.53;7.73;;;30.60;53.00;;;;;;5094685;28;20435;-40
2022/06/20 10:21:11;;;;;;;8.60;7.03;;;31.40;52.90;;;;;;5094448;28;20781;-40
2022/06/20 10:23:37;;;;;;;9.10;8.20;;;31.80;53.30;;;;;;5093106;28;20411;-42
2022/06/20 10:26:20;;;;;;;8.90;7.87;;;31.80;53.20;;;;;;5093781;28;20430;-43
2022/06/20 10:28:47;;;;;;;9.53;8.63;;;31.80;53.40;;;;;;5091900;28;20581;-41
2022/06/20 10:31:37;;;;;;;9.60;8.60;;;31.80;54.10;;;;;;5091680;28;20491;-41
2022/06/20 10:34:27;;;;;;;9.53;8.63;;;31.70;53.80;;;;;;5094052;28;20712;-45
2022/06/20 10:37:08;;;;;;;10.10;7.57;;;31.70;53.80;;;;;;5091492;28;20647;-42
2022/06/20 10:40:02;;;;;;;11.50;8.10;;;31.40;53.60;;;;;;5091891;28;20838;-43
2022/06/20 10:42:59;;;;;;;7.80;7.10;;;30.90;52.90;;;;;;5091483;28;20384;-43
2022/06/20 10:45:46;;;;;;;7.87;7.07;;;30.50;52.50;;;;;;5069666;28;20607;-41
2022/06/20 10:48:41;;;;;;;8.53;6.20;;;30.00;52.70;;;;;;5094174;28;20475;-42
2022/06/20 10:51:34;;;;;;;7.80;6.50;;;29.60;52.10;;;;;;5092504;28;20441;-42
2022/06/20 10:54:11;;;;;;;5.93;5.43;;;29.40;52.40;;;;;;5092698;28;20813;-40
2022/06/20 10:56:59;;;;;;;7.43;6.67;;;29.90;52.10;;;;;;5090819;28;20446;-39
2022/06/20 10:59:50;;;;;;;7.47;5.60;;;30.20;51.40;;;;;;5090620;28;20465;-46
2022/06/20 11:02:38;;;;;;;6.50;5.77;;;31.00;50.10;;;;;;5093257;28;20509;-42
2022/06/20 11:05:29;;;;;;;5.83;5.20;;;31.50;49.80;;;;;;5081048;28;20540;-43
2022/06/20 11:08:10;;;;;;;11.67;6.30;;;31.70;48.90;;;;;;5094063;28;20425;-42
2022/06/20 11:11:11;;;;;;;6.50;5.83;;;32.10;47.70;;;;;;5092150;28;20674;-41
2022/06/20 11:13:50;;;;;;;9.67;6.00;;;32.30;48.00;;;;;;5060988;28;20416;-43
2022/06/20 11:16:20;;;;;;;6.80;5.93;;;32.40;47.40;;;;;;5090488;28;20420;-42
2022/06/20 11:19:12;;;;;;;6.23;5.40;;;32.30;47.20;;;;;;5092373;28;20469;-44
2022/06/20 11:21:55;;;;;;;6.23;5.33;;;31.80;47.20;;;;;;5093585;28;20423;-43
2022/06/20 11:24:32;;;;;;;8.40;6.30;;;31.10;48.00;;;;;;5096889;28;20419;-41
2022/06/20 11:27:15;;;;;;;9.33;6.30;;;30.50;49.50;;;;;;5096304;28;20485;-42
2022/06/20 11:29:44;;;;;;;6.70;6.10;;;30.30;50.20;;;;;;5094651;28;20422;-44
2022/06/20 11:32:19;;;;;;;6.13;5.63;;;30.30;50.80;;;;;;5097620;28;20412;-42
2022/06/20 11:34:58;;;;;;;7.93;6.17;;;30.60;50.40;;;;;;5095602;28;20426;-41
2022/06/20 11:37:49;;;;;;;6.57;5.90;;;30.70;49.40;;;;;;5096803;28;20407;-44
2022/06/20 11:40:39;;;;;;;8.43;4.87;;;30.40;49.40;;;;;;5097780;28;20728;-43
2022/06/20 11:43:28;;;;;;;5.63;5.07;;;30.00;49.60;;;;;;5096115;28;20416;-41
2022/06/20 11:46:00;;;;;;;5.60;4.60;;;29.40;50.20;;;;;;5097676;28;20428;-41
2022/06/20 11:48:51;;;;;;;6.20;5.60;;;29.20;50.70;;;;;;5096973;28;20400;-40
2022/06/20 11:51:55;;;;;;;7.27;5.80;;;29.10;51.80;;;;;;5097182;28;20417;-43
2022/06/20 11:54:39;;;;;;;8.03;6.60;;;28.90;52.60;;;;;;5066136;28;20879;-41
2022/06/20 11:57:23;;;;;;;9.43;6.50;;;28.50;54.50;;;;;;5094171;28;20427;-42
2022/06/20 12:00:19;;;;;;;7.17;6.47;;;28.50;55.70;;;;;;5093835;28;20458;-41
2022/06/20 12:03:04;;;;;;;9.50;8.07;;;28.30;56.20;;;;;;5075179;28;20433;-40
2022/06/20 12:05:35;;;;;;;7.70;6.87;;;28.10;57.20;;;;;;5096261;28;20423;-41
2022/06/20 12:08:33;;;;;;;10.20;6.60;;;28.30;57.30;;;;;;5096353;28;20407;-41
2022/06/20 12:11:31;;;;;;;6.70;5.37;;;28.90;56.20;;;;;;5085799;28;20807;-42
2022/06/20 12:14:11;;;;;;;6.13;4.90;;;29.80;54.20;;;;;;5068388;28;20872;-42
2022/06/20 12:17:15;;;;;;;7.13;5.57;;;29.90;52.30;;;;;;5092817;28;20780;-41
2022/06/20 12:25:43;;;;;;;7.27;5.63;;;29.10;53.40;;;;;;5074643;28;20838;-42
2022/06/20 12:28:18;;;;;;;6.57;4.87;;;29.00;53.80;;;;;;5057398;28;20426;-43
2022/06/20 12:30:49;;;;;;;6.77;5.47;;;29.10;54.20;;;;;;5073899;28;20471;-40
2022/06/20 12:33:14;;;;;;;6.40;5.53;;;29.20;54.40;;;;;;5071757;28;20405;-41
2022/06/20 12:35:52;;;;;;;6.17;5.60;;;29.30;54.40;;;;;;5073866;28;20423;-41
2022/06/20 12:38:21;;;;;;;5.80;5.27;;;29.80;54.00;;;;;;5073874;28;20652;-45
2022/06/20 12:40:50;;;;;;;5.30;4.80;;;30.30;53.70;;;;;;5075767;28;20524;-41
2022/06/20 12:43:16;;;;;;;5.53;4.30;;;30.90;52.30;;;;;;5074562;28;20477;-41
2022/06/20 12:45:47;;;;;;;5.53;4.30;;;31.40;51.10;;;;;;5074675;28;20524;-41
2022/06/20 12:48:20;;;;;;;5.37;3.73;;;31.70;49.20;;;;;;5075064;28;20196;-41
2022/06/20 12:50:52;;;;;;;5.23;4.10;;;31.90;48.50;;;;;;5075612;28;20484;-43
2022/06/20 12:53:39;;;;;;;4.57;4.17;;;31.80;48.60;;;;;;5076569;28;20687;-41
2022/06/20 12:56:14;;;;;;;4.93;3.97;;;31.20;49.80;;;;;;5076094;28;20466;-43
2022/06/20 12:59:00;;;;;;;8.73;4.60;;;30.80;49.80;;;;;;5076328;28;20447;-43
2022/06/20 13:01:38;;;;;;;6.30;4.23;;;30.90;50.60;;;;;;5075430;28;20393;-42
2022/06/20 13:04:34;;;;;;;6.00;4.57;;;31.10;51.50;;;;;;5073067;28;20411;-43
2022/06/20 13:07:19;;;;;;;5.47;4.97;;;31.70;50.70;;;;;;5071399;28;20412;-41
2022/06/20 13:09:56;;;;;;;6.60;4.83;;;32.10;50.90;;;;;;5071732;28;20838;-42
2022/06/20 13:12:27;;;;;;;5.47;4.60;;;32.50;50.70;;;;;;5071254;28;20388;-39
2022/06/20 13:15:21;;;;;;;5.80;4.83;;;32.90;49.70;;;;;;5069246;28;20473;-42
2022/06/20 13:18:03;;;;;;;8.00;5.00;;;33.40;49.30;;;;;;5072904;28;20378;-42
2022/06/20 13:20:39;;;;;;;7.67;4.70;;;33.70;47.90;;;;;;5072075;28;20482;-43
2022/06/20 13:23:51;;;;;;;6.57;5.13;;;33.60;47.60;;;;;;5074183;28;20386;-39
2022/06/20 13:26:46;;;;;;;6.77;5.40;;;33.00;48.30;;;;;;5043181;28;20494;-41
2022/06/20 13:29:32;;;;;;;7.10;6.40;;;32.30;50.90;;;;;;5074598;28;20384;-41
2022/06/20 13:32:29;;;;;;;10.63;7.47;;;32.50;51.00;;;;;;5074943;28;20446;-42
2022/06/20 13:35:15;;;;;;;7.90;6.57;;;32.20;50.80;;;;;;5072133;28;20387;-40
2022/06/20 13:38:02;;;;;;;8.27;7.47;;;31.50;52.20;;;;;;5072118;28;20486;-42